Time;durP1;ratioP1;P1;durP2;ratioP2;P2;SDS_P1;SDS_P2;PMS_P1;PMS_P2;Temp;Humidity;BMP_temperature;BMP_pressure;BME280_temperature;BME280_humidity;BME280_pressure;Samples;Min_cycle;Max_cycle;Signal;HPM_P1;HPM_P2
2021/12/21 00:01:18;;;;;;;3.85;2.95;;;-0.20;99.90;;;;;;5086668;28;20208;-64
2021/12/21 00:03:45;;;;;;;3.15;2.85;;;-0.20;99.90;;;;;;5088109;28;20262;-64
2021/12/21 00:06:12;;;;;;;5.38;4.40;;;-0.20;99.90;;;;;;5086977;28;20296;-64
2021/12/21 00:08:40;;;;;;;3.10;2.90;;;-0.20;99.90;;;;;;5087611;28;20632;-64
2021/12/21 00:11:06;;;;;;;2.55;2.35;;;-0.30;99.90;;;;;;5089715;28;20201;-64
2021/12/21 00:13:46;;;;;;;3.88;2.80;;;-0.20;99.90;;;;;;5091530;28;20246;-64
2021/12/21 00:16:19;;;;;;;3.08;2.80;;;-0.30;99.90;;;;;;5091096;28;20228;-63
2021/12/21 00:19:03;;;;;;;3.15;2.50;;;-0.40;99.90;;;;;;5088838;28;20605;-64
2021/12/21 00:21:36;;;;;;;2.90;2.70;;;-0.40;99.90;;;;;;5091090;28;20200;-64
2021/12/21 00:24:12;;;;;;;2.35;2.15;;;-0.40;99.90;;;;;;5084981;28;20277;-65
2021/12/21 00:26:39;;;;;;;2.47;2.28;;;-0.40;99.90;;;;;;5091680;28;20198;-64
2021/12/21 00:29:06;;;;;;;3.85;2.38;;;-0.40;99.90;;;;;;5090680;28;20199;-63
2021/12/21 00:31:36;;;;;;;3.00;2.80;;;-0.50;99.90;;;;;;5089040;28;20208;-65
2021/12/21 00:34:05;;;;;;;1.85;1.77;;;-0.50;99.90;;;;;;5117917;22;20219;-67
2021/12/21 00:36:33;;;;;;;1.80;1.70;;;-0.50;99.90;;;;;;5105800;28;20218;-67
2021/12/21 00:39:04;;;;;;;2.53;2.33;;;-0.50;99.90;;;;;;5106809;28;20214;-67
2021/12/21 00:41:32;;;;;;;5.15;3.80;;;-0.50;99.90;;;;;;5108328;28;20204;-67
2021/12/21 00:43:59;;;;;;;1.70;1.60;;;-0.50;99.90;;;;;;5106219;27;20224;-67
2021/12/21 00:46:26;;;;;;;3.13;2.80;;;-0.50;99.90;;;;;;5101561;27;20249;-67
2021/12/21 00:48:56;;;;;;;3.45;3.03;;;-0.50;99.90;;;;;;5093001;27;20660;-68
2021/12/21 00:51:24;;;;;;;2.50;1.80;;;-0.50;99.90;;;;;;5102915;28;20260;-67
2021/12/21 00:53:52;;;;;;;2.65;2.17;;;-0.50;99.90;;;;;;5104131;28;20238;-67
2021/12/21 00:56:18;;;;;;;4.30;3.75;;;-0.50;99.90;;;;;;5105805;28;20875;-67
2021/12/21 00:58:46;;;;;;;2.45;1.90;;;-0.50;99.90;;;;;;5097289;28;20257;-68
2021/12/21 01:01:13;;;;;;;2.63;2.42;;;-0.50;99.90;;;;;;5097084;28;20204;-67
2021/12/21 01:03:47;;;;;;;4.30;2.75;;;-0.40;99.90;;;;;;5102820;27;20240;-67
2021/12/21 01:06:20;;;;;;;3.00;2.47;;;-0.50;99.90;;;;;;5105655;27;20269;-67
2021/12/21 01:09:01;;;;;;;5.10;1.85;;;-0.60;99.90;;;;;;5084293;28;20204;-67
2021/12/21 01:11:31;;;;;;;3.00;2.45;;;-0.60;99.90;;;;;;5084030;28;20215;-67
2021/12/21 01:14:11;;;;;;;2.67;2.13;;;-0.70;99.90;;;;;;5089830;28;20222;-67
2021/12/21 01:16:43;;;;;;;4.72;2.10;;;-0.70;99.90;;;;;;5101792;27;20624;-67
2021/12/21 01:19:15;;;;;;;3.47;2.20;;;-0.70;99.90;;;;;;5091670;27;20204;-67
2021/12/21 01:21:53;;;;;;;1.90;1.80;;;-0.70;99.90;;;;;;5093949;27;20195;-67
2021/12/21 01:24:41;;;;;;;1.90;1.70;;;-0.70;99.90;;;;;;5103108;27;20793;-67
2021/12/21 01:27:26;;;;;;;3.22;2.92;;;-0.70;99.90;;;;;;5104095;28;20242;-67
2021/12/21 01:30:05;;;;;;;2.38;2.17;;;-0.80;99.90;;;;;;5107124;27;20261;-67
2021/12/21 01:32:48;;;;;;;4.43;2.75;;;-0.90;99.90;;;;;;5094559;28;20411;-66
2021/12/21 01:35:22;;;;;;;3.33;3.03;;;-0.90;99.90;;;;;;5091644;27;20242;-67
2021/12/21 01:37:56;;;;;;;2.88;2.67;;;-0.90;99.90;;;;;;5094793;28;20306;-67
2021/12/21 01:40:34;;;;;;;4.30;3.33;;;-0.80;99.90;;;;;;5083983;27;20274;-67
2021/12/21 01:43:14;;;;;;;3.65;3.35;;;-0.80;99.90;;;;;;5086296;27;20706;-67
2021/12/21 01:51:13;;;;;;;9.32;3.10;;;-0.60;99.90;;;;;;5102019;28;21985;-68
2021/12/21 01:53:40;;;;;;;2.30;2.13;;;-0.60;99.90;;;;;;5095216;28;20221;-67
2021/12/21 01:56:08;;;;;;;4.45;2.83;;;-0.70;99.90;;;;;;5094881;27;20341;-67
2021/12/21 01:58:37;;;;;;;3.58;2.30;;;-0.70;99.90;;;;;;5102977;28;20309;-67
2021/12/21 02:01:06;;;;;;;3.88;3.53;;;-0.80;99.90;;;;;;5095762;28;20208;-67
2021/12/21 02:03:33;;;;;;;6.25;4.25;;;-0.80;99.90;;;;;;5100001;28;20325;-67
2021/12/21 02:06:00;;;;;;;2.97;2.05;;;-0.90;99.90;;;;;;5095512;28;20271;-67
2021/12/21 02:08:27;;;;;;;2.28;2.17;;;-0.90;99.90;;;;;;5102629;27;20210;-68
2021/12/21 02:10:53;;;;;;;4.35;2.67;;;-0.90;99.90;;;;;;5105143;28;20260;-68
2021/12/21 02:13:20;;;;;;;2.30;2.10;;;-0.90;99.90;;;;;;5084191;28;20535;-68
2021/12/21 02:15:47;;;;;;;1.83;1.58;;;-0.90;99.90;;;;;;5085100;28;20273;-67
2021/12/21 02:18:33;;;;;;;2.40;2.20;;;-1.00;99.90;;;;;;5089340;27;20202;-68
2021/12/21 02:21:07;;;;;;;3.30;2.05;;;-1.00;99.90;;;;;;5098684;27;20252;-67
2021/12/21 02:23:36;;;;;;;4.57;2.03;;;-1.00;99.90;;;;;;5094189;28;20243;-66
2021/12/21 02:26:33;;;;;;;1.92;1.83;;;-1.00;99.90;;;;;;5091432;27;20310;-67
2021/12/21 02:29:13;;;;;;;2.28;1.85;;;-1.00;99.90;;;;;;5088180;28;20197;-67
2021/12/21 02:31:43;;;;;;;2.85;1.85;;;-1.00;99.90;;;;;;5093910;28;20200;-66
2021/12/21 02:34:10;;;;;;;2.83;2.60;;;-1.00;99.90;;;;;;5091864;28;20296;-67
2021/12/21 02:36:39;;;;;;;3.25;2.83;;;-1.00;99.90;;;;;;5093770;27;20709;-67
2021/12/21 02:39:07;;;;;;;1.98;1.88;;;-1.00;99.90;;;;;;5085664;27;20195;-67
2021/12/21 02:41:35;;;;;;;2.35;2.15;;;-1.00;99.90;;;;;;5086033;28;20212;-67
2021/12/21 02:44:02;;;;;;;2.95;1.90;;;-0.90;99.90;;;;;;5083718;28;20228;-67
2021/12/21 02:46:28;;;;;;;2.63;2.40;;;-0.90;99.90;;;;;;5081247;28;20260;-67
2021/12/21 02:48:55;;;;;;;2.67;2.33;;;-0.90;99.90;;;;;;5084786;28;20223;-67
2021/12/21 02:51:22;;;;;;;2.03;1.83;;;-0.90;99.90;;;;;;5087435;28;20239;-67
2021/12/21 02:53:51;;;;;;;2.45;2.25;;;-0.90;99.90;;;;;;5105779;27;20257;-72
2021/12/21 02:56:18;;;;;;;4.75;2.67;;;-0.90;99.90;;;;;;5098256;28;20207;-67
2021/12/21 02:58:45;;;;;;;2.80;1.83;;;-0.90;99.90;;;;;;5099329;28;20219;-67
2021/12/21 03:01:12;;;;;;;2.53;2.33;;;-0.90;99.90;;;;;;5094938;28;20208;-67
2021/12/21 03:03:40;;;;;;;4.40;2.22;;;-0.90;99.90;;;;;;5105829;27;20764;-68
2021/12/21 03:06:12;;;;;;;2.95;1.80;;;-0.90;99.90;;;;;;5104976;28;20191;-67
2021/12/21 03:08:42;;;;;;;3.38;3.17;;;-0.90;99.90;;;;;;5104624;27;20272;-67
2021/12/21 03:11:18;;;;;;;5.75;3.58;;;-1.00;99.90;;;;;;5108403;28;20202;-66
2021/12/21 03:14:03;;;;;;;5.40;2.67;;;-1.00;99.90;;;;;;5100322;28;20231;-67
2021/12/21 03:16:33;;;;;;;1.90;1.80;;;-1.00;99.90;;;;;;5107755;28;20291;-67
2021/12/21 03:19:00;;;;;;;8.15;3.90;;;-1.00;99.90;;;;;;5096176;28;20240;-67
2021/12/21 03:21:27;;;;;;;2.50;2.30;;;-1.00;99.90;;;;;;5090904;28;20699;-67
2021/12/21 03:23:54;;;;;;;2.70;2.50;;;-1.10;99.90;;;;;;5093994;28;20220;-66
2021/12/21 03:26:22;;;;;;;2.22;2.03;;;-1.10;99.90;;;;;;5093369;28;20195;-66
2021/12/21 03:28:49;;;;;;;2.67;2.47;;;-1.00;99.90;;;;;;5094983;28;20286;-66
2021/12/21 03:31:16;;;;;;;4.20;2.25;;;-1.10;99.90;;;;;;5097484;28;20211;-66
2021/12/21 03:33:46;;;;;;;3.42;2.35;;;-1.20;99.90;;;;;;5107696;28;20237;-67
2021/12/21 03:36:16;;;;;;;2.40;2.30;;;-1.30;99.90;;;;;;5105644;28;20247;-67
2021/12/21 03:38:48;;;;;;;2.20;2.05;;;-1.40;99.90;;;;;;5087007;28;20220;-67
2021/12/21 03:41:16;;;;;;;1.80;1.70;;;-1.40;99.90;;;;;;5102449;28;20230;-67
2021/12/21 03:43:44;;;;;;;3.45;2.25;;;-1.50;99.90;;;;;;5103896;28;20237;-67
2021/12/21 03:46:13;;;;;;;2.08;1.92;;;-1.50;99.90;;;;;;5098560;28;20573;-66
2021/12/21 03:48:45;;;;;;;2.78;2.50;;;-1.50;99.90;;;;;;5106005;27;20204;-67
2021/12/21 03:51:12;;;;;;;3.25;2.75;;;-1.50;99.90;;;;;;5099332;27;20220;-65
2021/12/21 03:53:39;;;;;;;2.88;2.67;;;-1.50;99.90;;;;;;5102832;27;20242;-66
2021/12/21 03:56:27;;;;;;;3.92;2.58;;;-1.40;99.90;;;;;;5106702;27;20208;-66
2021/12/21 03:58:55;;;;;;;3.30;2.47;;;-1.40;99.90;;;;;;5107493;28;20229;-66
2021/12/21 04:01:21;;;;;;;2.42;2.22;;;-1.40;99.90;;;;;;5097472;28;20301;-66
2021/12/21 04:03:48;;;;;;;1.77;1.67;;;-1.40;99.90;;;;;;5094537;28;20684;-66
2021/12/21 04:06:15;;;;;;;1.35;1.17;;;-1.40;99.90;;;;;;5097221;28;20217;-66
2021/12/21 04:08:42;;;;;;;2.88;2.17;;;-1.40;99.90;;;;;;5104633;28;20267;-66
2021/12/21 04:11:08;;;;;;;3.97;3.45;;;-1.40;99.90;;;;;;5090690;28;20627;-66
2021/12/21 04:13:35;;;;;;;4.43;2.45;;;-1.40;99.90;;;;;;5104902;27;20242;-67
2021/12/21 04:16:05;;;;;;;2.28;2.17;;;-1.30;99.90;;;;;;5108227;27;20207;-66
2021/12/21 04:18:35;;;;;;;2.67;2.30;;;-1.40;99.90;;;;;;5107989;27;20212;-67
2021/12/21 04:21:02;;;;;;;3.60;2.03;;;-1.40;99.90;;;;;;5121280;27;20230;-68
2021/12/21 04:23:29;;;;;;;5.28;2.05;;;-1.40;99.90;;;;;;5113906;27;20778;-66
2021/12/21 04:25:56;;;;;;;2.25;2.05;;;-1.40;99.90;;;;;;5117942;27;20232;-66
2021/12/21 04:28:22;;;;;;;2.80;2.45;;;-1.50;99.90;;;;;;5101799;28;20272;-66
2021/12/21 04:30:49;;;;;;;2.78;2.10;;;-1.50;99.90;;;;;;5107371;28;20210;-67
2021/12/21 04:33:17;;;;;;;1.60;1.50;;;-1.50;99.90;;;;;;5109933;27;20207;-66
2021/12/21 04:35:44;;;;;;;3.13;2.92;;;-1.50;99.90;;;;;;5101841;28;20640;-66
2021/12/21 04:38:21;;;;;;;3.08;2.03;;;-1.60;99.90;;;;;;5091650;28;20265;-67
2021/12/21 04:40:50;;;;;;;3.17;2.97;;;-1.50;99.90;;;;;;5098658;27;20634;-66
2021/12/21 04:43:17;;;;;;;2.35;2.15;;;-1.50;99.90;;;;;;5099671;27;20329;-66
2021/12/21 04:45:45;;;;;;;2.72;2.53;;;-1.50;99.90;;;;;;5101322;27;20676;-67
2021/12/21 04:48:11;;;;;;;3.88;3.58;;;-1.50;99.90;;;;;;5101448;28;20250;-66
2021/12/21 04:50:40;;;;;;;9.48;3.28;;;-1.50;99.90;;;;;;5102871;27;20245;-67
2021/12/21 04:53:07;;;;;;;1.50;1.40;;;-1.50;99.90;;;;;;5093302;27;20200;-67
2021/12/21 04:55:34;;;;;;;1.77;1.67;;;-1.50;99.90;;;;;;5092502;28;20712;-67
2021/12/21 04:58:00;;;;;;;3.22;2.45;;;-1.50;99.90;;;;;;5093818;28;20272;-67
2021/12/21 05:00:27;;;;;;;2.85;2.33;;;-1.50;99.90;;;;;;5095705;28;20272;-68
2021/12/21 05:02:54;;;;;;;2.83;2.55;;;-1.50;99.90;;;;;;5093671;28;20384;-67
2021/12/21 05:05:21;;;;;;;3.65;3.45;;;-1.50;99.90;;;;;;5093204;28;20281;-67
2021/12/21 05:07:54;;;;;;;3.00;2.63;;;-1.50;99.90;;;;;;5103106;28;20238;-67
2021/12/21 05:10:21;;;;;;;1.67;1.58;;;-1.50;99.90;;;;;;5100766;28;20209;-67
2021/12/21 05:12:48;;;;;;;4.53;2.53;;;-1.50;99.90;;;;;;5103205;27;20293;-67
2021/12/21 05:15:15;;;;;;;2.85;2.45;;;-1.50;99.90;;;;;;5099048;27;20750;-67
2021/12/21 05:17:41;;;;;;;2.28;2.17;;;-1.50;99.90;;;;;;5101831;28;20208;-66
2021/12/21 05:20:09;;;;;;;3.55;3.25;;;-1.50;99.90;;;;;;5098202;27;20401;-67
2021/12/21 05:22:35;;;;;;;2.40;2.20;;;-1.50;99.90;;;;;;5094497;27;20272;-67
2021/12/21 05:25:04;;;;;;;1.55;1.45;;;-1.60;99.90;;;;;;5103995;27;20719;-68
2021/12/21 05:27:31;;;;;;;1.60;1.50;;;-1.60;99.90;;;;;;5105268;28;20207;-67
2021/12/21 05:29:57;;;;;;;1.90;1.80;;;-1.70;99.90;;;;;;5106315;28;20302;-67
2021/12/21 05:32:25;;;;;;;5.25;1.77;;;-1.60;99.90;;;;;;5117504;27;20212;-66
2021/12/21 05:34:52;;;;;;;2.67;2.47;;;-1.70;99.90;;;;;;5120610;28;20225;-67
2021/12/21 05:37:18;;;;;;;1.63;1.52;;;-1.70;99.90;;;;;;5117587;28;20288;-71
2021/12/21 05:39:55;;;;;;;2.40;2.20;;;-1.70;99.90;;;;;;5108129;27;20309;-66
2021/12/21 05:42:23;;;;;;;3.45;2.25;;;-1.70;99.90;;;;;;5111444;28;20652;-66
2021/12/21 05:44:50;;;;;;;8.48;1.65;;;-1.70;99.90;;;;;;5106170;28;20222;-67
2021/12/21 05:47:17;;;;;;;2.60;2.40;;;-1.70;99.90;;;;;;5108612;27;20277;-65
2021/12/21 05:49:46;;;;;;;3.97;2.83;;;-1.70;99.90;;;;;;5103805;27;20214;-66
2021/12/21 05:52:12;;;;;;;5.95;3.38;;;-1.70;99.90;;;;;;5103056;28;20207;-66
2021/12/21 05:54:39;;;;;;;2.78;2.28;;;-1.70;99.90;;;;;;5106780;27;20316;-67
2021/12/21 05:57:06;;;;;;;2.75;2.55;;;-1.70;99.90;;;;;;5096290;28;20256;-67
2021/12/21 05:59:35;;;;;;;1.77;1.67;;;-1.80;99.90;;;;;;5097398;28;20793;-66
2021/12/21 06:02:01;;;;;;;2.90;2.63;;;-1.90;99.90;;;;;;5117170;27;20205;-67
2021/12/21 06:04:28;;;;;;;7.35;2.20;;;-1.80;99.90;;;;;;5103830;28;20614;-67
2021/12/21 06:06:55;;;;;;;5.72;2.83;;;-1.90;99.90;;;;;;5107659;28;20678;-67
2021/12/21 06:09:22;;;;;;;1.95;1.85;;;-1.90;99.90;;;;;;5106140;28;20200;-66
2021/12/21 06:11:59;;;;;;;3.33;1.80;;;-1.90;99.90;;;;;;5114303;27;20647;-67
2021/12/21 06:14:57;;;;;;;2.28;2.08;;;-1.90;99.90;;;;;;5111830;27;20631;-67
2021/12/21 06:23:13;;;;;;;5.60;3.75;;;-1.80;99.90;;;;;;5100127;28;21715;-67
2021/12/21 06:25:42;;;;;;;2.35;2.25;;;-1.90;99.90;;;;;;5095403;27;20201;-66
2021/12/21 06:28:11;;;;;;;1.88;1.58;;;-2.00;99.90;;;;;;5101095;28;20575;-66
2021/12/21 06:30:39;;;;;;;2.72;1.95;;;-2.10;99.90;;;;;;5096854;28;20280;-66
2021/12/21 06:33:08;;;;;;;2.88;2.53;;;-2.00;99.90;;;;;;5107966;28;20205;-66
2021/12/21 06:35:35;;;;;;;2.15;2.05;;;-2.00;99.90;;;;;;5091732;28;20234;-66
2021/12/21 06:38:02;;;;;;;1.20;1.20;;;-1.90;99.90;;;;;;5088072;28;20208;-66
2021/12/21 06:40:29;;;;;;;2.88;1.98;;;-1.90;99.90;;;;;;5105391;28;20639;-66
2021/12/21 06:42:59;;;;;;;2.92;2.72;;;-1.90;99.90;;;;;;5108105;28;20210;-66
2021/12/21 06:45:31;;;;;;;2.55;2.35;;;-1.90;99.90;;;;;;5107259;28;20367;-66
2021/12/21 06:53:29;;;;;;;2.00;1.38;;;-1.90;99.90;;;;;;5110415;27;20213;-66
2021/12/21 06:55:56;;;;;;;1.85;1.75;;;-2.00;99.90;;;;;;5106482;28;20209;-66
2021/12/21 06:58:22;;;;;;;1.20;1.20;;;-2.00;99.90;;;;;;5093618;28;20204;-73
2021/12/21 07:00:52;;;;;;;1.65;1.55;;;-2.00;99.90;;;;;;5105780;28;20273;-66
2021/12/21 07:03:19;;;;;;;2.45;2.25;;;-2.00;99.90;;;;;;5107517;28;20214;-66
2021/12/21 07:05:48;;;;;;;2.70;2.42;;;-2.10;99.90;;;;;;5101469;28;20291;-66
2021/12/21 07:08:19;;;;;;;2.00;1.90;;;-2.10;99.90;;;;;;5116059;27;20224;-67
2021/12/21 07:10:54;;;;;;;2.25;2.15;;;-2.10;99.90;;;;;;5098024;28;20200;-66
2021/12/21 07:18:50;;;;;;;2.78;1.90;;;-2.10;99.90;;;;;;5104354;28;20288;-66
2021/12/21 07:21:18;;;;;;;1.23;1.23;;;-2.00;99.90;;;;;;5099995;28;20203;-67
2021/12/21 07:23:45;;;;;;;2.50;2.35;;;-2.10;99.90;;;;;;5111977;28;20227;-66
2021/12/21 07:26:11;;;;;;;2.25;2.15;;;-2.00;99.90;;;;;;5111421;27;20264;-66
2021/12/21 07:28:38;;;;;;;2.03;1.58;;;-2.00;99.90;;;;;;5111683;28;20589;-66
2021/12/21 07:31:04;;;;;;;5.63;3.42;;;-2.00;99.90;;;;;;5105789;27;20222;-72
2021/12/21 07:33:31;;;;;;;1.95;1.67;;;-2.10;99.90;;;;;;5105124;27;20235;-66
2021/12/21 07:35:58;;;;;;;1.83;1.73;;;-2.10;99.90;;;;;;5111744;28;20229;-66
2021/12/21 07:38:30;;;;;;;6.47;2.75;;;-2.10;99.90;;;;;;5107572;27;20632;-67
2021/12/21 07:40:57;;;;;;;1.48;1.15;;;-2.00;99.90;;;;;;5108395;27;20260;-66
2021/12/21 07:43:24;;;;;;;3.47;2.20;;;-2.00;99.90;;;;;;5112246;28;20211;-66
2021/12/21 07:45:51;;;;;;;2.17;1.98;;;-2.00;99.90;;;;;;5111232;28;20222;-66
2021/12/21 07:48:18;;;;;;;2.22;2.03;;;-2.00;99.90;;;;;;5110775;28;20240;-65
2021/12/21 07:50:46;;;;;;;2.35;2.15;;;-2.00;99.90;;;;;;5109853;28;20269;-66
2021/12/21 07:53:14;;;;;;;2.42;1.58;;;-2.00;99.90;;;;;;5098612;27;20656;-66
2021/12/21 07:55:42;;;;;;;2.17;2.00;;;-1.90;99.90;;;;;;5097540;28;20208;-66
2021/12/21 07:58:09;;;;;;;3.75;1.45;;;-1.90;99.90;;;;;;5098064;27;20300;-66
2021/12/21 08:00:36;;;;;;;1.77;1.67;;;-1.90;99.90;;;;;;5109977;27;20207;-66
2021/12/21 08:03:03;;;;;;;2.65;2.45;;;-1.90;99.90;;;;;;5110471;28;20265;-66
2021/12/21 08:05:33;;;;;;;7.28;2.00;;;-1.80;99.90;;;;;;5097941;28;20225;-66
2021/12/21 08:08:09;;;;;;;2.45;2.03;;;-1.80;99.90;;;;;;5109692;28;20281;-66
2021/12/21 08:10:44;;;;;;;2.40;2.20;;;-1.80;99.90;;;;;;5108214;28;20239;-66
2021/12/21 08:13:12;;;;;;;2.50;1.75;;;-1.70;99.90;;;;;;5103606;28;20196;-65
2021/12/21 08:15:39;;;;;;;2.15;1.65;;;-1.60;99.90;;;;;;5094160;28;20681;-65
2021/12/21 08:18:05;;;;;;;2.33;2.17;;;-1.50;99.90;;;;;;5105731;27;20276;-65
2021/12/21 08:20:32;;;;;;;3.50;2.95;;;-1.50;99.90;;;;;;5094991;28;20229;-65
2021/12/21 08:22:59;;;;;;;3.10;2.83;;;-1.40;99.90;;;;;;5097191;28;20231;-65
2021/12/21 08:25:27;;;;;;;2.97;2.45;;;-1.20;99.90;;;;;;5107544;27;20250;-64
2021/12/21 08:27:55;;;;;;;3.42;1.85;;;-1.10;99.90;;;;;;5099901;28;20176;-65
2021/12/21 08:30:24;;;;;;;2.95;2.75;;;-1.00;99.90;;;;;;5111139;28;20200;-66
2021/12/21 08:32:51;;;;;;;4.32;4.03;;;-0.80;99.90;;;;;;5109016;28;20200;-65
2021/12/21 08:35:18;;;;;;;3.03;2.25;;;-0.60;99.90;;;;;;5103911;27;20223;-66
2021/12/21 08:37:51;;;;;;;4.60;3.92;;;-0.50;99.90;;;;;;5098524;27;20302;-65
2021/12/21 08:40:17;;;;;;;1.58;1.45;;;-0.40;99.90;;;;;;5101588;27;20282;-66
2021/12/21 08:42:46;;;;;;;3.67;2.05;;;-0.30;99.90;;;;;;5109208;28;20707;-65
2021/12/21 08:45:13;;;;;;;2.60;2.08;;;-0.10;99.90;;;;;;5106407;27;20223;-66
2021/12/21 08:47:41;;;;;;;4.55;2.40;;;0.00;99.90;;;;;;5103359;28;20200;-66
2021/12/21 08:50:10;;;;;;;1.50;1.40;;;0.10;99.90;;;;;;5101307;27;20200;-67
2021/12/21 08:52:37;;;;;;;4.82;1.48;;;0.20;99.90;;;;;;5106714;28;20291;-68
2021/12/21 08:55:05;;;;;;;14.18;2.22;;;0.30;99.90;;;;;;5105969;28;20757;-66
2021/12/21 08:57:32;;;;;;;3.35;2.00;;;0.40;99.90;;;;;;5100182;27;20203;-68
2021/12/21 08:59:58;;;;;;;1.85;1.75;;;0.50;99.90;;;;;;5105597;27;20208;-67
2021/12/21 09:02:28;;;;;;;1.33;1.23;;;0.60;99.90;;;;;;5104054;27;20229;-67
2021/12/21 09:04:56;;;;;;;1.95;1.80;;;0.70;99.90;;;;;;5107150;28;20631;-67
2021/12/21 09:07:22;;;;;;;2.60;2.35;;;0.70;99.90;;;;;;5097061;27;20630;-67
2021/12/21 09:09:49;;;;;;;2.60;2.15;;;0.70;99.90;;;;;;5107826;28;20204;-67
2021/12/21 09:12:16;;;;;;;2.10;1.90;;;0.80;99.90;;;;;;5111438;28;20205;-68
2021/12/21 09:14:42;;;;;;;3.00;2.00;;;0.90;99.90;;;;;;5101277;27;20212;-67
2021/12/21 09:17:09;;;;;;;3.00;2.80;;;1.00;99.90;;;;;;5109048;27;20201;-67
2021/12/21 09:19:36;;;;;;;2.00;1.90;;;1.10;99.90;;;;;;5094989;28;20265;-68
2021/12/21 09:22:04;;;;;;;2.22;2.03;;;1.20;99.90;;;;;;5104706;27;20276;-68
2021/12/21 09:24:31;;;;;;;2.67;2.30;;;1.30;99.90;;;;;;5102427;28;20717;-67
2021/12/21 09:26:58;;;;;;;6.50;3.63;;;1.40;99.90;;;;;;5102548;28;20607;-66
2021/12/21 09:29:24;;;;;;;2.03;1.88;;;1.50;99.90;;;;;;5100250;28;20271;-66
2021/12/21 09:31:51;;;;;;;2.08;1.98;;;1.70;99.90;;;;;;5101683;27;20210;-66
2021/12/21 09:34:17;;;;;;;2.90;2.70;;;1.70;99.90;;;;;;5105947;28;20633;-66
2021/12/21 09:36:44;;;;;;;2.50;1.92;;;1.90;99.90;;;;;;5102152;27;20193;-67
2021/12/21 09:39:12;;;;;;;3.00;2.80;;;2.00;99.90;;;;;;5100815;28;20209;-67
2021/12/21 09:41:39;;;;;;;4.35;2.60;;;2.10;99.90;;;;;;5101301;27;20267;-67
2021/12/21 09:44:06;;;;;;;1.75;1.60;;;2.30;99.90;;;;;;5105947;27;20897;-67
2021/12/21 09:46:33;;;;;;;1.92;1.83;;;2.50;99.90;;;;;;5100875;27;20287;-64
2021/12/21 09:49:00;;;;;;;3.55;2.53;;;2.70;99.90;;;;;;5102081;28;20271;-64
2021/12/21 09:51:26;;;;;;;1.85;1.75;;;2.70;99.90;;;;;;5100682;27;20206;-74
2021/12/21 09:53:56;;;;;;;1.73;1.55;;;2.70;99.90;;;;;;5093361;28;20729;-71
2021/12/21 09:56:24;;;;;;;2.17;2.08;;;2.80;99.90;;;;;;5101358;27;20272;-72
2021/12/21 09:58:51;;;;;;;2.83;1.35;;;2.80;99.90;;;;;;5099669;27;20201;-71
2021/12/21 10:01:21;;;;;;;2.40;2.20;;;2.70;99.90;;;;;;5110247;28;20520;-72
2021/12/21 10:03:48;;;;;;;8.52;2.35;;;2.80;99.90;;;;;;5114374;28;20302;-72
2021/12/21 10:06:15;;;;;;;2.25;2.00;;;3.00;99.90;;;;;;5115120;27;20244;-75
2021/12/21 10:08:42;;;;;;;3.75;1.77;;;3.00;99.90;;;;;;5112991;28;20258;-71
2021/12/21 10:11:19;;;;;;;1.80;1.70;;;3.00;99.90;;;;;;5114550;28;20206;-73
2021/12/21 10:13:47;;;;;;;3.60;2.30;;;3.20;99.90;;;;;;5099661;28;20272;-71
2021/12/21 10:16:19;;;;;;;2.83;2.42;;;3.30;99.90;;;;;;5104810;28;20715;-71
2021/12/21 10:18:46;;;;;;;1.70;1.60;;;3.40;99.90;;;;;;5106190;28;20343;-72
2021/12/21 10:21:16;;;;;;;3.35;2.20;;;3.40;99.90;;;;;;5103446;28;20228;-72
2021/12/21 10:23:44;;;;;;;3.65;1.92;;;3.60;99.90;;;;;;5097454;28;20689;-71
2021/12/21 10:26:14;;;;;;;4.32;3.38;;;3.70;99.90;;;;;;5097815;28;20666;-72
2021/12/21 10:28:43;;;;;;;2.97;2.55;;;3.90;99.90;;;;;;5100828;28;20652;-71
2021/12/21 10:31:12;;;;;;;1.77;1.67;;;3.80;99.90;;;;;;5100424;28;20509;-71
2021/12/21 10:33:43;;;;;;;1.90;1.73;;;3.70;99.90;;;;;;5100081;28;20302;-71
2021/12/21 10:36:11;;;;;;;3.67;2.30;;;3.90;99.90;;;;;;5099107;28;20278;-71
2021/12/21 10:38:47;;;;;;;2.85;2.00;;;4.00;99.90;;;;;;5105372;28;20226;-70
2021/12/21 10:41:16;;;;;;;1.88;1.50;;;4.00;99.90;;;;;;5097635;28;20209;-71
2021/12/21 10:43:44;;;;;;;1.80;1.65;;;4.00;99.90;;;;;;5093069;28;20385;-71
2021/12/21 10:46:12;;;;;;;1.92;1.83;;;4.00;99.90;;;;;;5093561;27;20293;-70
2021/12/21 10:48:46;;;;;;;9.02;1.73;;;4.00;99.90;;;;;;5097015;27;20199;-70
2021/12/21 10:51:15;;;;;;;3.15;1.80;;;3.90;99.90;;;;;;5096379;28;20811;-70
2021/12/21 10:53:46;;;;;;;2.80;2.53;;;3.70;99.90;;;;;;5099427;28;20247;-66
2021/12/21 10:56:14;;;;;;;2.22;2.03;;;3.70;99.90;;;;;;5101703;28;20222;-66
2021/12/21 10:58:43;;;;;;;1.90;1.73;;;3.70;99.90;;;;;;5099259;28;20209;-66
2021/12/21 11:01:14;;;;;;;1.85;1.75;;;3.70;99.90;;;;;;5103049;28;20275;-66
2021/12/21 11:03:46;;;;;;;3.22;1.88;;;3.70;99.90;;;;;;5102499;28;20597;-67
2021/12/21 11:06:15;;;;;;;2.05;1.55;;;3.80;99.90;;;;;;5106166;28;20207;-66
2021/12/21 11:08:43;;;;;;;1.98;1.88;;;4.00;99.90;;;;;;5099703;28;20219;-66
2021/12/21 11:11:27;;;;;;;1.95;1.30;;;3.90;99.90;;;;;;5094845;28;20211;-73
2021/12/21 11:14:06;;;;;;;6.82;2.00;;;3.90;99.90;;;;;;5091508;28;20324;-69
2021/12/21 11:16:40;;;;;;;2.85;1.65;;;4.00;99.90;;;;;;5095371;28;20197;-69
2021/12/21 11:19:08;;;;;;;1.20;1.15;;;4.10;99.90;;;;;;5106251;28;20211;-65
2021/12/21 11:21:36;;;;;;;3.30;3.00;;;4.10;99.90;;;;;;5103409;28;20202;-65
2021/12/21 11:24:05;;;;;;;1.65;1.55;;;4.10;99.90;;;;;;5095019;28;20804;-66
2021/12/21 11:26:33;;;;;;;1.60;1.45;;;4.20;99.90;;;;;;5098089;28;20220;-66
2021/12/21 11:29:03;;;;;;;1.30;1.13;;;4.20;99.90;;;;;;5105670;28;20214;-65
2021/12/21 11:31:31;;;;;;;1.85;1.73;;;4.30;99.90;;;;;;5099707;28;20215;-65
2021/12/21 11:34:00;;;;;;;4.03;2.60;;;4.20;99.90;;;;;;5102560;28;20438;-65
2021/12/21 11:39:23;;;;;;;3.65;1.88;;;4.10;99.90;;;;;;5083007;28;20217;-65
2021/12/21 11:41:51;;;;;;;2.83;1.70;;;4.20;99.90;;;;;;5088177;28;20346;-65
2021/12/21 11:44:24;;;;;;;2.25;1.60;;;4.30;99.90;;;;;;5102708;28;20724;-65
2021/12/21 11:46:55;;;;;;;1.95;1.73;;;4.50;99.90;;;;;;5097501;28;20293;-65
2021/12/21 11:49:32;;;;;;;1.80;1.42;;;4.70;99.90;;;;;;5103403;28;20207;-65
2021/12/21 11:52:13;;;;;;;1.42;1.33;;;4.80;99.90;;;;;;5103944;27;20214;-65
2021/12/21 11:54:49;;;;;;;2.60;1.52;;;5.10;99.90;;;;;;5102830;28;20253;-66
2021/12/21 11:57:18;;;;;;;2.83;2.63;;;5.30;99.90;;;;;;5097567;28;20198;-65
2021/12/21 11:59:45;;;;;;;4.45;2.72;;;5.50;99.90;;;;;;5099855;28;20253;-65
2021/12/21 12:02:11;;;;;;;2.15;1.95;;;5.60;99.90;;;;;;5095189;28;20632;-65
2021/12/21 12:04:39;;;;;;;1.92;1.83;;;5.80;99.90;;;;;;5097335;28;20640;-65
2021/12/21 12:07:17;;;;;;;3.83;2.47;;;5.90;99.90;;;;;;5102704;27;20245;-65
2021/12/21 12:09:44;;;;;;;7.18;2.70;;;6.20;99.90;;;;;;5104428;28;20208;-66
2021/12/21 12:12:12;;;;;;;3.17;1.65;;;6.50;99.90;;;;;;5100144;27;20205;-65
2021/12/21 12:14:41;;;;;;;1.95;1.85;;;6.80;99.90;;;;;;5101319;28;20221;-66
2021/12/21 12:17:13;;;;;;;2.13;1.97;;;7.00;99.90;;;;;;5103823;28;20201;-68
2021/12/21 12:19:43;;;;;;;2.13;1.50;;;7.30;99.90;;;;;;5104236;27;20547;-68
2021/12/21 12:22:13;;;;;;;2.50;2.30;;;7.20;99.90;;;;;;5100838;27;20434;-68
2021/12/21 12:24:43;;;;;;;4.18;1.73;;;7.00;99.90;;;;;;5105940;27;20528;-68
2021/12/21 12:27:14;;;;;;;5.78;2.45;;;6.70;99.90;;;;;;5102613;28;20447;-65
2021/12/21 12:29:50;;;;;;;3.50;3.20;;;6.60;99.90;;;;;;5098541;27;20217;-65
2021/12/21 12:32:18;;;;;;;2.70;2.60;;;6.60;99.90;;;;;;5100711;27;20488;-65
2021/12/21 12:34:46;;;;;;;7.10;2.87;;;6.60;99.90;;;;;;5107395;28;20568;-65
2021/12/21 12:37:19;;;;;;;2.97;2.07;;;6.70;99.90;;;;;;5100103;27;20519;-65
2021/12/21 12:39:48;;;;;;;1.85;1.70;;;6.80;99.90;;;;;;5102523;28;20466;-65
2021/12/21 12:42:18;;;;;;;2.63;2.33;;;6.90;99.90;;;;;;5098048;27;20199;-65
2021/12/21 12:44:46;;;;;;;2.30;2.10;;;6.90;99.90;;;;;;5097684;27;20552;-65
2021/12/21 12:47:15;;;;;;;6.40;3.50;;;7.00;99.90;;;;;;5092884;28;20546;-65
2021/12/21 12:49:50;;;;;;;3.30;2.23;;;7.10;99.90;;;;;;5102685;27;20529;-66
2021/12/21 12:52:20;;;;;;;2.03;1.80;;;7.30;99.90;;;;;;5103179;27;20512;-66
2021/12/21 12:54:51;;;;;;;2.40;1.70;;;7.40;99.90;;;;;;5100508;27;20483;-66
2021/12/21 12:57:29;;;;;;;1.70;1.60;;;7.40;99.90;;;;;;5104612;27;20459;-65
2021/12/21 12:59:59;;;;;;;3.63;1.50;;;7.50;99.90;;;;;;5107769;27;20456;-66
2021/12/21 13:02:27;;;;;;;3.33;2.20;;;7.60;99.90;;;;;;5101989;27;20539;-65
2021/12/21 13:04:53;;;;;;;2.63;1.97;;;7.60;99.90;;;;;;5091801;28;20485;-67
2021/12/21 13:07:28;;;;;;;4.03;3.10;;;7.50;99.90;;;;;;5104208;28;20834;-71
2021/12/21 13:10:06;;;;;;;5.70;2.80;;;7.40;99.90;;;;;;5097229;28;20474;-72
2021/12/21 13:12:33;;;;;;;4.80;1.93;;;7.40;99.90;;;;;;5092666;28;20460;-65
2021/12/21 13:14:59;;;;;;;1.83;1.73;;;7.50;99.90;;;;;;5098894;28;20458;-65
2021/12/21 13:17:26;;;;;;;4.67;2.20;;;7.40;99.90;;;;;;5105381;28;20453;-67
2021/12/21 13:19:53;;;;;;;2.07;1.87;;;7.40;99.90;;;;;;5097461;27;20517;-65
2021/12/21 13:22:24;;;;;;;4.07;1.57;;;7.40;99.90;;;;;;5100343;28;20829;-65
2021/12/21 13:24:52;;;;;;;3.33;2.17;;;7.40;99.90;;;;;;5093035;27;20901;-65
2021/12/21 13:27:21;;;;;;;2.42;1.88;;;7.50;99.90;;;;;;5098727;28;20554;-65